Dragocidental — CSYN4 — position and weather

sailwx.info

Track history (hours):
 
Tides and Currents Weather Stations Pressure Air Temp Water Temp Dewpoint Dewpoint Depression Visibility Wind Speed Wind Dir Waves Ship Positions

Dragocidental

Last reported at 2015-Feb-25 08:24 UTC. Time now 2015-Mar-06 09:07 UTC.
Position N 38°28' W 026°42'.
Warning: this ship's position is 9 days out of date.

Length 30 m.

Type: Dredging. MMSI: 204671360.

Date/timePositionNaut miles runAvg speedWind from/ knotsBaromVisibWave heightAir tempDewpointWater temp
2015-Feb-25 08:24N 38°28' W 026°42'4 5.2
2015-Feb-25 07:33N 38°24' W 026°38'5 5.0
2015-Feb-25 06:33N 38°20' W 026°34'5 5.2
2015-Feb-25 05:33N 38°16' W 026°30'5 5.5
2015-Feb-25 04:33N 38°13' W 026°24'6 5.5
2015-Feb-25 03:33N 38°09' W 026°19'5 5.3
2015-Feb-25 02:34N 38°05' W 026°15'5 5.3
2015-Feb-25 01:33N 38°02' W 026°09'5 5.3
2015-Feb-25 00:33N 37°58' W 026°04'5 5.3
2015-Feb-24 23:33N 37°55' W 025°60'5 5.1
2015-Feb-24 22:34N 37°51' W 025°55'5 5.3
2015-Feb-24 21:33N 37°47' W 025°50'5 5.3
2015-Feb-24 20:33N 37°45' W 025°44'4 3.7
2015-Feb-24 19:33N 37°44' W 025°40'0 0.1
2015-Feb-24 18:31N 37°44' W 025°40'0 0.0
2015-Feb-24 14:33N 37°44' W 025°40'0 0.0
2015-Feb-24 13:33N 37°44' W 025°40'0 0.0
2015-Feb-24 12:33N 37°44' W 025°40'0 0.0
2015-Feb-24 11:33N 37°44' W 025°40'0 0.0
2015-Feb-24 10:33N 37°44' W 025°40'0 0.0
2015-Feb-24 09:33N 37°44' W 025°40'0 0.0
2015-Feb-23 17:23N 37°44' W 025°40'0 0.0
2015-Feb-23 16:32N 37°44' W 025°40'0 0.0
2015-Feb-23 15:34N 37°44' W 025°40'0 0.0
2015-Feb-23 14:33N 37°44' W 025°40'0 0.0
2015-Feb-23 13:33N 37°44' W 025°40'0 0.0
2015-Feb-23 12:33N 37°44' W 025°40'0 0.0
2015-Feb-23 11:33N 37°44' W 025°40'0 0.0
2015-Feb-23 10:33N 37°44' W 025°40'0 0.0
2015-Feb-23 09:33N 37°44' W 025°40'  
2015-Feb-20 18:24N 37°44' W 025°40'0 0.0
2015-Feb-20 17:31N 37°44' W 025°40'0 0.0
2015-Feb-20 16:33N 37°44' W 025°40'0 0.0
2015-Feb-20 11:32N 37°44' W 025°40'0 0.0
2015-Feb-20 10:32N 37°44' W 025°40'0 0.0
2015-Feb-20 09:32N 37°44' W 025°40'0 0.0
2015-Feb-19 18:12N 37°44' W 025°40'0 0.0
2015-Feb-19 17:33N 37°44' W 025°40'0 0.0
2015-Feb-19 16:33N 37°44' W 025°40'0 0.0
2015-Feb-19 15:33N 37°44' W 025°40'0 0.0
2015-Feb-19 14:33N 37°44' W 025°40'0 0.0
2015-Feb-19 13:33N 37°44' W 025°40'0 0.0
2015-Feb-19 12:33N 37°44' W 025°40'0 0.0
2015-Feb-19 11:34N 37°44' W 025°40'0 0.0
2015-Feb-19 10:33N 37°44' W 025°40'0 0.0
2015-Feb-19 09:33N 37°44' W 025°40'0 0.0
2015-Feb-18 16:33N 37°44' W 025°40'0 0.0
2015-Feb-18 15:33N 37°44' W 025°40'0 0.0
2015-Feb-18 14:33N 37°44' W 025°40'0 0.0
2015-Feb-18 13:33N 37°44' W 025°40'0 0.0
2015-Feb-18 12:33N 37°44' W 025°40'0 0.0
2015-Feb-18 11:33N 37°44' W 025°40'0 0.0
2015-Feb-18 10:33N 37°44' W 025°40'0 0.0
2015-Feb-18 09:33N 37°44' W 025°40'0 0.0
2015-Feb-16 17:26N 37°44' W 025°40'0 0.0
2015-Feb-16 16:32N 37°44' W 025°40'0 0.0
2015-Feb-16 15:32N 37°44' W 025°40'0 0.0
2015-Feb-16 14:32N 37°44' W 025°40'0 0.0
2015-Feb-16 13:32N 37°44' W 025°40'0 0.0
2015-Feb-16 12:32N 37°44' W 025°40'0 0.0
2015-Feb-16 11:32N 37°44' W 025°40'0 0.0
2015-Feb-16 10:32N 37°44' W 025°40'0 0.0
2015-Feb-16 09:32N 37°44' W 025°40'  
Track history (hours):
 
Tides and Currents Weather Stations Pressure Air Temp Water Temp Dewpoint Dewpoint Depression Visibility Wind Speed Wind Dir Waves Ship Positions

Dragocidental

Last reported at 2015-Feb-25 08:24 UTC. Time now 2015-Mar-06 09:07 UTC.
Position N 38°28' W 026°42'.
Warning: this ship's position is 9 days out of date.

Length 30 m.

Type: Dredging. MMSI: 204671360.

Date/timePositionNaut miles runAvg speedWind from/ knotsBaromVisibWave heightAir tempDewpointWater temp
2015-Feb-25 08:24N 38°28' W 026°42'4 5.2
2015-Feb-25 07:33N 38°24' W 026°38'5 5.0
2015-Feb-25 06:33N 38°20' W 026°34'5 5.2
2015-Feb-25 05:33N 38°16' W 026°30'5 5.5
2015-Feb-25 04:33N 38°13' W 026°24'6 5.5
2015-Feb-25 03:33N 38°09' W 026°19'5 5.3
2015-Feb-25 02:34N 38°05' W 026°15'5 5.3
2015-Feb-25 01:33N 38°02' W 026°09'5 5.3
2015-Feb-25 00:33N 37°58' W 026°04'5 5.3
2015-Feb-24 23:33N 37°55' W 025°60'5 5.1
2015-Feb-24 22:34N 37°51' W 025°55'5 5.3
2015-Feb-24 21:33N 37°47' W 025°50'5 5.3
2015-Feb-24 20:33N 37°45' W 025°44'4 3.7
2015-Feb-24 19:33N 37°44' W 025°40'0 0.1
2015-Feb-24 18:31N 37°44' W 025°40'0 0.0
2015-Feb-24 14:33N 37°44' W 025°40'0 0.0
2015-Feb-24 13:33N 37°44' W 025°40'0 0.0
2015-Feb-24 12:33N 37°44' W 025°40'0 0.0
2015-Feb-24 11:33N 37°44' W 025°40'0 0.0
2015-Feb-24 10:33N 37°44' W 025°40'0 0.0
2015-Feb-24 09:33N 37°44' W 025°40'0 0.0
2015-Feb-23 17:23N 37°44' W 025°40'0 0.0
2015-Feb-23 16:32N 37°44' W 025°40'0 0.0
2015-Feb-23 15:34N 37°44' W 025°40'0 0.0
2015-Feb-23 14:33N 37°44' W 025°40'0 0.0
2015-Feb-23 13:33N 37°44' W 025°40'0 0.0
2015-Feb-23 12:33N 37°44' W 025°40'0 0.0
2015-Feb-23 11:33N 37°44' W 025°40'0 0.0
2015-Feb-23 10:33N 37°44' W 025°40'0 0.0
2015-Feb-23 09:33N 37°44' W 025°40'  
2015-Feb-20 18:24N 37°44' W 025°40'0 0.0
2015-Feb-20 17:31N 37°44' W 025°40'0 0.0
2015-Feb-20 16:33N 37°44' W 025°40'0 0.0
2015-Feb-20 11:32N 37°44' W 025°40'0 0.0
2015-Feb-20 10:32N 37°44' W 025°40'0 0.0
2015-Feb-20 09:32N 37°44' W 025°40'0 0.0
2015-Feb-19 18:12N 37°44' W 025°40'0 0.0
2015-Feb-19 17:33N 37°44' W 025°40'0 0.0
2015-Feb-19 16:33N 37°44' W 025°40'0 0.0
2015-Feb-19 15:33N 37°44' W 025°40'0 0.0
2015-Feb-19 14:33N 37°44' W 025°40'0 0.0
2015-Feb-19 13:33N 37°44' W 025°40'0 0.0
2015-Feb-19 12:33N 37°44' W 025°40'0 0.0
2015-Feb-19 11:34N 37°44' W 025°40'0 0.0
2015-Feb-19 10:33N 37°44' W 025°40'0 0.0
2015-Feb-19 09:33N 37°44' W 025°40'0 0.0
2015-Feb-18 16:33N 37°44' W 025°40'0 0.0
2015-Feb-18 15:33N 37°44' W 025°40'0 0.0
2015-Feb-18 14:33N 37°44' W 025°40'0 0.0
2015-Feb-18 13:33N 37°44' W 025°40'0 0.0
2015-Feb-18 12:33N 37°44' W 025°40'0 0.0
2015-Feb-18 11:33N 37°44' W 025°40'0 0.0
2015-Feb-18 10:33N 37°44' W 025°40'0 0.0
2015-Feb-18 09:33N 37°44' W 025°40'0 0.0
2015-Feb-16 17:26N 37°44' W 025°40'0 0.0
2015-Feb-16 16:32N 37°44' W 025°40'0 0.0
2015-Feb-16 15:32N 37°44' W 025°40'0 0.0
2015-Feb-16 14:32N 37°44' W 025°40'0 0.0
2015-Feb-16 13:32N 37°44' W 025°40'0 0.0
2015-Feb-16 12:32N 37°44' W 025°40'0 0.0
2015-Feb-16 11:32N 37°44' W 025°40'0 0.0
2015-Feb-16 10:32N 37°44' W 025°40'0 0.0
2015-Feb-16 09:32N 37°44' W 025°40'  

Dump ship's entire track history